createdAt,value
2023-04-16T00:03:30.787Z,100186.44
2023-04-16T00:08:27.250Z,100208.34
2023-04-16T00:13:21.184Z,100204.34
2023-04-16T00:18:14.557Z,100211.53
2023-04-16T00:23:08.188Z,100203.91
2023-04-16T00:28:02.642Z,100198.41
2023-04-16T00:32:55.821Z,100231.09
2023-04-16T00:37:49.270Z,100218.91
2023-04-16T00:42:42.524Z,100191.25
2023-04-16T00:47:35.425Z,100188.59
2023-04-16T00:52:30.255Z,100207.22
2023-04-16T00:57:24.692Z,100187.81
2023-04-16T01:02:17.514Z,100209.16
2023-04-16T01:07:11.287Z,100205.00
2023-04-16T01:12:04.151Z,100217.47
2023-04-16T01:16:56.782Z,100205.81
2023-04-16T01:21:50.203Z,100189.22
2023-04-16T01:26:43.087Z,100167.59
2023-04-16T01:31:36.960Z,100220.19
2023-04-16T01:36:34.843Z,100174.59
2023-04-16T01:41:29.647Z,100212.56
2023-04-16T01:46:29.547Z,100198.97
2023-04-16T01:51:23.030Z,100185.03
2023-04-16T01:56:16.610Z,100225.31
2023-04-16T02:01:10.582Z,100219.75
2023-04-16T02:06:05.490Z,100217.28
2023-04-16T02:10:58.896Z,100203.00
2023-04-16T02:15:53.137Z,100223.88
2023-04-16T02:20:56.211Z,100219.66
2023-04-16T02:25:49.952Z,100228.59
2023-04-16T02:30:43.674Z,100249.84
2023-04-16T02:35:40.532Z,100230.63
2023-04-16T02:40:33.340Z,100229.56
2023-04-16T02:45:26.740Z,100231.38
2023-04-16T02:50:19.871Z,100226.91
2023-04-16T02:55:13.724Z,100234.88
2023-04-16T03:00:08.210Z,100206.59
2023-04-16T03:05:01.201Z,100220.00
2023-04-16T03:09:54.914Z,100234.28
2023-04-16T03:14:49.233Z,100246.50
2023-04-16T03:19:42.391Z,100234.16
2023-04-16T03:24:36.100Z,100211.09
2023-04-16T03:29:29.397Z,100241.09
2023-04-16T03:34:23.888Z,100245.31
2023-04-16T03:39:17.205Z,100253.28
2023-04-16T03:44:11.489Z,100249.69
2023-04-16T03:49:04.460Z,100257.66
2023-04-16T03:53:56.997Z,100239.97
2023-04-16T03:58:51.601Z,100265.00
2023-04-16T04:03:45.900Z,100257.47
2023-04-16T04:08:40.135Z,100291.13
2023-04-16T04:13:33.112Z,100272.44
2023-04-16T04:18:26.522Z,100272.66
2023-04-16T04:23:19.740Z,100270.88
2023-04-16T04:28:14.213Z,100293.91
2023-04-16T04:33:07.380Z,100295.06
2023-04-16T04:38:02.670Z,100301.88
2023-04-16T04:42:56.418Z,100277.28
2023-04-16T04:47:50.820Z,100269.25
2023-04-16T04:52:44.790Z,100318.00
2023-04-16T04:57:37.981Z,100322.19
2023-04-16T05:02:32.430Z,100342.75
2023-04-16T05:07:27.248Z,100342.75
2023-04-16T05:12:20.317Z,100311.94
2023-04-16T05:17:14.835Z,100358.94
2023-04-16T05:22:08.142Z,100359.03
2023-04-16T05:27:01.873Z,100328.06
2023-04-16T05:31:54.598Z,100353.84
2023-04-16T05:36:47.917Z,100328.63
2023-04-16T05:41:41.684Z,100355.34
2023-04-16T05:46:35.113Z,100322.16
2023-04-16T05:51:28.217Z,100336.63
2023-04-16T05:56:23.918Z,100347.59
2023-04-16T06:01:17.407Z,100319.69
2023-04-16T06:06:11.614Z,100378.06
2023-04-16T06:11:04.540Z,100372.31
2023-04-16T06:15:58.342Z,100363.84
2023-04-16T06:20:51.603Z,100391.31
2023-04-16T06:25:44.872Z,100417.75
2023-04-16T06:30:44.426Z,100374.69
2023-04-16T06:35:37.035Z,100383.16
2023-04-16T06:40:31.218Z,100387.63
2023-04-16T06:45:24.237Z,100403.13
2023-04-16T06:50:17.029Z,100395.91
2023-04-16T06:55:10.769Z,100389.50
2023-04-16T07:00:05.439Z,100368.31
2023-04-16T07:04:58.520Z,100342.63
2023-04-16T07:09:52.113Z,100399.75
2023-04-16T07:14:48.212Z,100371.50
2023-04-16T07:19:42.163Z,100393.69
2023-04-16T07:24:39.614Z,100422.91
2023-04-16T07:29:32.874Z,100412.03
2023-04-16T07:34:26.569Z,100418.00
2023-04-16T07:39:19.755Z,100408.84
2023-04-16T07:44:13.368Z,100403.66
2023-04-16T07:49:07.392Z,100398.13
2023-04-16T07:54:00.932Z,100427.72
2023-04-16T07:58:53.838Z,100447.28
2023-04-16T08:03:47.591Z,100427.09
2023-04-16T08:08:41.178Z,100424.03
2023-04-16T08:13:33.708Z,100447.69
2023-04-16T08:18:26.302Z,100428.50
2023-04-16T08:23:19.456Z,100459.59
2023-04-16T08:28:12.675Z,100437.63
2023-04-16T08:33:06.358Z,100437.72
2023-04-16T08:38:02.279Z,100453.53
2023-04-16T08:43:00.183Z,100471.19
2023-04-16T08:47:54.173Z,100474.25
2023-04-16T08:52:58.479Z,100462.69
2023-04-16T08:57:58.318Z,100435.75
2023-04-16T09:02:53.789Z,100449.88
2023-04-16T09:07:47.879Z,100443.38
2023-04-16T09:12:43.790Z,100435.63
2023-04-16T09:17:36.305Z,100451.34
2023-04-16T09:22:29.260Z,100468.13
2023-04-16T09:27:23.273Z,100469.09
2023-04-16T09:32:18.917Z,100468.13
2023-04-16T09:37:21.232Z,100449.75
2023-04-16T09:42:15.456Z,100445.59
2023-04-16T09:47:10.144Z,100481.81
2023-04-16T09:52:03.269Z,100455.81
2023-04-16T09:56:57.979Z,100475.31
2023-04-16T10:01:51.216Z,100475.97
2023-04-16T10:06:44.531Z,100471.50
2023-04-16T10:11:37.666Z,100470.63
2023-04-16T10:16:32.327Z,100462.38
2023-04-16T10:21:34.574Z,100447.50
2023-04-16T10:26:27.210Z,100460.03
2023-04-16T10:31:20.602Z,100467.78
2023-04-16T10:36:16.940Z,100471.19
2023-04-16T10:41:10.739Z,100472.34
2023-04-16T10:46:32.603Z,100460.03
2023-04-16T10:51:36.892Z,100431.91
2023-04-16T10:56:32.930Z,100467.91
2023-04-16T11:01:34.485Z,100441.44
2023-04-16T11:06:30.037Z,100462.47
2023-04-16T11:11:24.498Z,100459.81
2023-04-16T11:16:17.968Z,100464.25
2023-04-16T11:21:13.742Z,100457.69
2023-04-16T11:26:29.703Z,100427.09
2023-04-16T11:31:24.639Z,100428.06
2023-04-16T11:36:18.003Z,100442.63
2023-04-16T11:41:11.698Z,100447.41
2023-04-16T11:46:16.751Z,100421.94
2023-04-16T11:51:23.857Z,100444.44
2023-04-16T11:56:26.208Z,100444.66
2023-04-16T12:01:21.653Z,100442.22
2023-04-16T12:06:16.288Z,100418.31
2023-04-16T12:11:13.061Z,100424.06
2023-04-16T12:16:18.797Z,100431.59
2023-04-16T12:21:12.528Z,100387.22
2023-04-16T12:26:11.181Z,100427.75
2023-04-16T12:31:05.871Z,100387.00
2023-04-16T12:35:59.286Z,100392.94
2023-04-16T12:40:57.461Z,100402.47
2023-04-16T12:45:51.478Z,100406.06
2023-04-16T12:50:45.188Z,100389.97
2023-04-16T12:55:39.322Z,100408.50
2023-04-16T13:00:33.186Z,100368.94
2023-04-16T13:05:27.216Z,100405.03
2023-04-16T13:10:22.263Z,100384.28
2023-04-16T13:15:15.817Z,100381.28
2023-04-16T13:20:10.673Z,100348.84
2023-04-16T13:25:04.961Z,100377.06
2023-04-16T13:29:57.958Z,100365.47
2023-04-16T13:34:51.615Z,100362.06
2023-04-16T13:39:46.289Z,100366.56
2023-04-16T13:44:39.918Z,100356.63
2023-04-16T13:49:35.626Z,100357.38
2023-04-16T13:54:29.934Z,100360.03
2023-04-16T13:59:23.672Z,100366.22
2023-04-16T14:04:17.506Z,100326.44
2023-04-16T14:09:11.772Z,100380.25
2023-04-16T14:14:05.864Z,100364.53
2023-04-16T14:18:58.708Z,100342.47
2023-04-16T14:23:51.955Z,100357.63
2023-04-16T14:28:46.269Z,100335.34
2023-04-16T14:33:39.731Z,100360.03
2023-04-16T14:38:33.322Z,100350.00
2023-04-16T14:43:27.186Z,100340.53
2023-04-16T14:48:20.332Z,100345.97
2023-04-16T14:53:14.361Z,100358.00
2023-04-16T14:58:07.954Z,100360.28
2023-04-16T15:03:01.326Z,100364.84
2023-04-16T15:07:56.766Z,100367.59
2023-04-16T15:12:49.873Z,100382.78
2023-04-16T15:17:44.182Z,100384.81
2023-04-16T15:22:37.349Z,100390.75
2023-04-16T15:27:30.387Z,100362.63
2023-04-16T15:32:23.947Z,100367.72
2023-04-16T15:37:16.814Z,100380.34
2023-04-16T15:42:11.821Z,100354.91
2023-04-16T15:47:07.408Z,100391.81
2023-04-16T15:52:02.062Z,100364.44
2023-04-16T15:56:55.506Z,100386.50
2023-04-16T16:01:48.679Z,100399.66
2023-04-16T16:06:42.548Z,100373.56
2023-04-16T16:11:37.642Z,100358.94
2023-04-16T16:16:31.262Z,100410.19
2023-04-16T16:21:24.642Z,100395.97
2023-04-16T16:26:17.964Z,100412.75
2023-04-16T16:31:12.927Z,100395.84
2023-04-16T16:36:06.574Z,100432.78
2023-04-16T16:41:00.494Z,100371.78
2023-04-16T16:45:53.872Z,100379.84
2023-04-16T16:50:47.369Z,100423.13
2023-04-16T16:55:41.612Z,100429.38
2023-04-16T17:00:36.331Z,100434.63
2023-04-16T17:05:29.641Z,100411.78
2023-04-16T17:10:24.279Z,100441.34
2023-04-16T17:15:21.135Z,100432.50
2023-04-16T17:20:16.395Z,100427.84
2023-04-16T17:25:09.193Z,100448.56
2023-04-16T17:30:06.596Z,100465.63
2023-04-16T17:35:02.883Z,100415.09
2023-04-16T17:39:56.608Z,100459.03
2023-04-16T17:44:49.508Z,100458.22
2023-04-16T17:49:43.806Z,100466.41
2023-04-16T17:54:36.956Z,100479.38
2023-04-16T17:59:30.531Z,100514.44
2023-04-16T18:04:23.537Z,100503.28
2023-04-16T18:09:16.977Z,100508.56
2023-04-16T18:14:12.189Z,100518.56
2023-04-16T18:19:06.449Z,100484.56
2023-04-16T18:24:01.798Z,100507.94
2023-04-16T18:28:55.741Z,100512.28
2023-04-16T18:33:56.279Z,100529.06
2023-04-16T18:39:01.109Z,100520.38
2023-04-16T18:43:54.719Z,100504.97
2023-04-16T18:48:48.348Z,100523.34
2023-04-16T18:53:42.583Z,100504.97
2023-04-16T18:58:36.374Z,100538.88
2023-04-16T19:03:29.875Z,100525.16
2023-04-16T19:08:24.312Z,100539.72
2023-04-16T19:13:17.676Z,100555.66
2023-04-16T19:18:10.880Z,100545.00
2023-04-16T19:23:05.453Z,100556.28
2023-04-16T19:27:58.962Z,100562.00
2023-04-16T19:32:53.874Z,100551.28
2023-04-16T19:37:48.509Z,100543.22
2023-04-16T19:42:42.291Z,100527.78
2023-04-16T19:47:35.128Z,100567.09
2023-04-16T19:52:28.742Z,100563.50
2023-04-16T19:57:22.576Z,100550.09
2023-04-16T20:02:15.822Z,100584.34
2023-04-16T20:07:09.166Z,100569.38
2023-04-16T20:12:03.957Z,100567.47
2023-04-16T20:16:57.651Z,100578.81
2023-04-16T20:21:50.193Z,100571.16
2023-04-16T20:26:44.021Z,100564.13
2023-04-16T20:31:37.023Z,100572.84
2023-04-16T20:36:34.233Z,100568.16
2023-04-16T20:41:28.466Z,100554.19
2023-04-16T20:46:26.820Z,100544.16
2023-04-16T20:51:20.076Z,100561.38
2023-04-16T20:56:15.973Z,100567.00
2023-04-16T21:01:10.409Z,100552.25
2023-04-16T21:06:05.358Z,100565.19
2023-04-16T21:10:58.367Z,100560.63
2023-04-16T21:15:51.655Z,100540.22
2023-04-16T21:20:44.469Z,100568.41
2023-04-16T21:25:38.231Z,100559.38
2023-04-16T21:30:31.637Z,100591.25
2023-04-16T21:35:24.902Z,100579.53
2023-04-16T21:40:18.822Z,100576.03
2023-04-16T21:45:12.818Z,100566.50
2023-04-16T21:50:06.984Z,100568.81
2023-04-16T21:55:01.709Z,100563.28
2023-04-16T21:59:55.927Z,100560.00
2023-04-16T22:04:49.154Z,100564.91
2023-04-16T22:09:41.993Z,100566.78
2023-04-16T22:14:35.802Z,100552.25
2023-04-16T22:19:29.472Z,100571.81
2023-04-16T22:24:22.775Z,100584.16
2023-04-16T22:29:17.439Z,100542.59
2023-04-16T22:34:10.909Z,100577.13
2023-04-16T22:39:08.970Z,100577.88
2023-04-16T22:44:03.943Z,100585.09
2023-04-16T22:48:58.378Z,100562.88
2023-04-16T22:53:52.749Z,100566.91
2023-04-16T22:58:46.482Z,100574.47
2023-04-16T23:03:40.318Z,100556.50
2023-04-16T23:08:34.016Z,100546.94
2023-04-16T23:13:28.211Z,100566.19
2023-04-16T23:18:21.670Z,100568.97
2023-04-16T23:23:14.690Z,100528.88
2023-04-16T23:28:07.668Z,100578.50
2023-04-16T23:33:02.337Z,100573.19
2023-04-16T23:37:57.278Z,100573.72
2023-04-16T23:42:49.638Z,100568.50
2023-04-16T23:47:43.168Z,100575.84
2023-04-16T23:52:36.930Z,100559.38
2023-04-16T23:57:30.349Z,100570.22
